createdAt,value
2017-10-28T00:01:38.720Z,2.87
2017-10-28T00:04:06.755Z,3.20
2017-10-28T00:06:34.758Z,2.67
2017-10-28T00:09:02.828Z,2.67
2017-10-28T00:11:31.513Z,2.40
2017-10-28T00:13:59.482Z,2.43
2017-10-28T00:16:28.472Z,2.90
2017-10-28T00:18:56.439Z,2.67
2017-10-28T00:21:24.509Z,2.67
2017-10-28T00:23:52.477Z,2.53
2017-10-28T00:26:20.344Z,2.60
2017-10-28T00:28:48.234Z,2.73
2017-10-28T00:31:22.496Z,2.93
2017-10-28T00:33:55.834Z,3.00
2017-10-28T00:36:23.861Z,2.77
2017-10-28T00:38:51.837Z,2.90
2017-10-28T00:41:19.924Z,2.43
2017-10-28T00:43:47.994Z,3.10
2017-10-28T00:46:15.859Z,3.17
2017-10-28T00:48:43.809Z,2.80
2017-10-28T00:51:11.795Z,3.10
2017-10-28T00:53:40.992Z,2.83
2017-10-28T00:56:09.471Z,2.60
2017-10-28T00:58:37.421Z,3.00
2017-10-28T01:01:05.409Z,2.60
2017-10-28T01:03:34.399Z,2.73
2017-10-28T01:06:03.390Z,3.20
2017-10-28T01:08:31.359Z,2.63
2017-10-28T01:10:59.255Z,2.60
2017-10-28T01:13:28.010Z,2.73
2017-10-28T01:15:56.081Z,3.00
2017-10-28T01:18:24.048Z,3.03
2017-10-28T01:20:52.077Z,3.30
2017-10-28T01:23:20.905Z,3.17
2017-10-28T01:25:48.872Z,2.60
2017-10-28T01:28:16.785Z,3.20
2017-10-28T01:30:45.499Z,2.70
2017-10-28T01:33:13.389Z,3.20
2017-10-28T01:35:41.358Z,3.13
2017-10-28T01:38:08.940Z,2.60
2017-10-28T01:40:36.452Z,2.70
2017-10-28T01:43:03.972Z,2.90
2017-10-28T01:45:31.468Z,3.03
2017-10-28T01:47:58.985Z,3.23
2017-10-28T01:50:26.477Z,2.43
2017-10-28T01:52:54.761Z,2.90
2017-10-28T01:55:23.186Z,2.70
2017-10-28T01:57:50.705Z,3.10
2017-10-28T02:00:18.193Z,2.83
2017-10-28T02:02:47.645Z,4.20
2017-10-28T02:05:15.909Z,4.03
2017-10-28T02:07:46.164Z,2.93
2017-10-28T02:10:13.657Z,2.23
2017-10-28T02:12:41.186Z,2.87
2017-10-28T02:15:08.690Z,3.40
2017-10-28T02:17:36.977Z,2.83
2017-10-28T02:20:05.245Z,2.73
2017-10-28T02:22:33.508Z,3.00
2017-10-28T02:25:01.026Z,2.60
2017-10-28T02:27:28.573Z,3.17
2017-10-28T02:29:56.069Z,2.40
2017-10-28T02:32:23.590Z,3.10
2017-10-28T02:34:51.086Z,2.90
2017-10-28T02:37:18.611Z,3.37
2017-10-28T02:39:47.054Z,3.50
2017-10-28T02:42:15.314Z,3.17
2017-10-28T02:44:43.598Z,3.13
2017-10-28T02:47:11.858Z,2.83
2017-10-28T02:49:40.146Z,2.90
2017-10-28T02:52:08.416Z,3.20
2017-10-28T02:54:36.683Z,3.00
2017-10-28T02:57:04.197Z,3.10
2017-10-28T02:59:31.707Z,2.60
2017-10-28T03:01:59.998Z,2.80
2017-10-28T03:04:28.477Z,3.20
2017-10-28T03:06:55.998Z,3.13
2017-10-28T03:09:23.493Z,3.10
2017-10-28T03:11:50.984Z,2.90
2017-10-28T03:14:18.501Z,2.87
2017-10-28T03:16:46.761Z,2.73
2017-10-28T03:19:19.484Z,3.57
2017-10-28T03:21:47.001Z,3.00
2017-10-28T03:24:15.276Z,2.73
2017-10-28T03:26:43.566Z,3.00
2017-10-28T03:29:11.059Z,2.70
2017-10-28T03:31:38.954Z,3.80
2017-10-28T03:34:06.446Z,2.50
2017-10-28T03:36:33.972Z,3.20
2017-10-28T03:39:01.479Z,3.33
2017-10-28T03:41:29.009Z,3.30
2017-10-28T03:43:56.536Z,3.37
2017-10-28T03:46:24.040Z,2.90
2017-10-28T03:48:52.458Z,3.00
2017-10-28T03:51:19.954Z,3.30
2017-10-28T03:53:48.222Z,2.87
2017-10-28T03:56:16.506Z,3.57
2017-10-28T03:58:44.766Z,3.13
2017-10-28T04:01:13.050Z,4.00
2017-10-28T04:03:41.310Z,3.70
2017-10-28T04:06:08.831Z,3.50
2017-10-28T04:08:36.325Z,3.63
2017-10-28T04:11:03.814Z,3.70
2017-10-28T04:13:31.354Z,3.43
2017-10-28T04:16:00.574Z,3.50
2017-10-28T04:18:28.099Z,4.10
2017-10-28T04:20:56.373Z,4.13
2017-10-28T04:23:24.878Z,3.80
2017-10-28T04:25:52.394Z,3.43
2017-10-28T04:28:19.917Z,3.20
2017-10-28T04:30:47.408Z,3.37
2017-10-28T04:33:14.927Z,3.47
2017-10-28T04:35:42.421Z,2.97
2017-10-28T04:38:09.936Z,3.30
2017-10-28T04:40:38.384Z,3.57
2017-10-28T04:43:06.677Z,2.73
2017-10-28T04:45:34.177Z,3.37
2017-10-28T04:48:03.630Z,3.40
2017-10-28T04:50:31.894Z,3.63
2017-10-28T04:53:00.155Z,3.70
2017-10-28T04:55:27.672Z,3.63
2017-10-28T04:57:55.187Z,3.73
2017-10-28T05:00:22.682Z,3.87
2017-10-28T05:02:50.199Z,3.97
2017-10-28T05:05:18.461Z,4.00
2017-10-28T05:07:45.977Z,3.73
2017-10-28T05:10:13.482Z,3.97
2017-10-28T05:12:41.769Z,3.50
2017-10-28T05:15:10.201Z,3.40
2017-10-28T05:17:37.713Z,3.50
2017-10-28T05:20:05.210Z,3.93
2017-10-28T05:22:32.725Z,3.83
2017-10-28T05:25:00.226Z,3.73
2017-10-28T05:27:27.750Z,3.87
2017-10-28T05:29:55.253Z,3.47
2017-10-28T05:32:22.776Z,4.33
2017-10-28T05:34:50.270Z,3.70
2017-10-28T05:37:17.793Z,3.33
2017-10-28T05:39:45.291Z,3.80
2017-10-28T05:42:12.818Z,3.07
2017-10-28T05:44:42.273Z,3.20
2017-10-28T05:47:10.533Z,3.13
2017-10-28T05:49:38.798Z,3.37
2017-10-28T05:52:07.281Z,3.80
2017-10-28T05:54:35.550Z,2.60
2017-10-28T05:57:03.836Z,3.07
2017-10-28T05:59:31.346Z,3.40
2017-10-28T06:01:58.861Z,3.10
2017-10-28T06:04:27.119Z,3.33
2017-10-28T06:06:54.649Z,3.23
2017-10-28T06:09:22.147Z,3.90
2017-10-28T06:11:50.431Z,3.30
2017-10-28T06:14:18.694Z,3.90
2017-10-28T06:16:46.962Z,3.73
2017-10-28T06:19:15.268Z,3.27
2017-10-28T06:21:43.705Z,4.00
2017-10-28T06:24:11.222Z,3.33
2017-10-28T06:26:38.726Z,3.40
2017-10-28T06:29:06.222Z,3.50
2017-10-28T06:31:33.741Z,3.20
2017-10-28T06:34:02.194Z,2.90
2017-10-28T06:36:29.725Z,3.43
2017-10-28T06:38:57.217Z,3.50
2017-10-28T06:41:24.735Z,3.50
2017-10-28T06:43:53.191Z,3.50
2017-10-28T06:46:21.473Z,3.37
2017-10-28T06:48:49.007Z,3.27
2017-10-28T06:51:17.275Z,4.00
2017-10-28T06:53:44.790Z,3.30
2017-10-28T06:56:12.281Z,3.37
2017-10-28T06:58:39.796Z,3.30
2017-10-28T07:01:07.345Z,3.50
2017-10-28T07:03:34.848Z,3.13
2017-10-28T07:06:02.380Z,3.60
2017-10-28T07:08:29.878Z,3.30
2017-10-28T07:11:00.162Z,3.53
2017-10-28T07:13:28.568Z,3.60
2017-10-28T07:15:56.102Z,3.17
2017-10-28T07:18:23.636Z,3.27
2017-10-28T07:20:51.134Z,3.50
2017-10-28T07:23:19.530Z,3.40
2017-10-28T07:25:47.822Z,3.17
2017-10-28T07:28:16.086Z,3.63
2017-10-28T07:30:44.369Z,4.07
2017-10-28T07:33:12.642Z,2.80
2017-10-28T07:35:40.930Z,3.00
2017-10-28T07:38:08.430Z,3.10
2017-10-28T07:40:37.893Z,3.47
2017-10-28T07:43:05.391Z,3.60
2017-10-28T07:45:32.919Z,3.60
2017-10-28T07:48:00.419Z,3.60
2017-10-28T07:50:27.946Z,2.97
2017-10-28T07:52:55.459Z,3.00
2017-10-28T07:55:23.721Z,3.50
2017-10-28T07:57:53.201Z,2.73
2017-10-28T08:00:20.739Z,3.60
2017-10-28T08:02:48.251Z,2.80
2017-10-28T08:05:16.541Z,3.00
2017-10-28T08:07:44.048Z,3.63
2017-10-28T08:10:11.566Z,3.53
2017-10-28T08:12:39.079Z,2.73
2017-10-28T08:15:06.602Z,3.27
2017-10-28T08:17:35.054Z,3.00
2017-10-28T08:20:02.559Z,3.50
2017-10-28T08:22:30.097Z,3.00
2017-10-28T08:24:57.600Z,3.60
2017-10-28T08:27:25.889Z,3.10
2017-10-28T08:29:54.150Z,3.00
2017-10-28T08:32:22.442Z,3.03
2017-10-28T08:34:49.995Z,3.33
2017-10-28T08:37:18.257Z,3.40
2017-10-28T08:39:46.537Z,3.13
2017-10-28T08:42:15.754Z,3.13
2017-10-28T08:44:43.300Z,3.40
2017-10-28T08:47:10.810Z,2.87
2017-10-28T08:49:38.326Z,2.67
2017-10-28T08:52:05.857Z,2.87
2017-10-28T08:54:34.124Z,2.53
2017-10-28T08:57:04.382Z,2.53
2017-10-28T08:59:31.893Z,2.93
2017-10-28T09:01:59.390Z,2.97
2017-10-28T09:04:26.917Z,2.70
2017-10-28T09:06:54.413Z,2.60
2017-10-28T09:09:23.937Z,2.90
2017-10-28T09:11:51.446Z,2.90
2017-10-28T09:14:19.745Z,2.90
2017-10-28T09:16:47.245Z,3.07
2017-10-28T09:19:16.502Z,2.70
2017-10-28T09:21:44.033Z,2.93
2017-10-28T09:24:12.303Z,2.80
2017-10-28T09:26:40.589Z,2.60
2017-10-28T09:29:08.850Z,2.60
2017-10-28T09:31:38.340Z,2.87
2017-10-28T09:34:05.842Z,2.97
2017-10-28T09:36:33.365Z,2.93
2017-10-28T09:39:00.891Z,2.57
2017-10-28T09:41:28.418Z,2.87
2017-10-28T09:43:55.938Z,2.90
2017-10-28T09:46:23.464Z,2.60
2017-10-28T09:48:51.311Z,2.70
2017-10-28T09:51:20.897Z,2.73
2017-10-28T09:53:48.576Z,2.67
2017-10-28T09:56:16.141Z,2.73
2017-10-28T09:58:43.668Z,2.60
2017-10-28T10:01:11.342Z,2.73
2017-10-28T10:03:38.858Z,2.40
2017-10-28T10:06:06.378Z,3.20
2017-10-28T10:08:33.871Z,2.50
2017-10-28T10:11:01.390Z,3.10
2017-10-28T10:13:29.303Z,2.70
2017-10-28T10:15:57.220Z,2.87
2017-10-28T10:18:25.079Z,2.63
2017-10-28T10:20:53.047Z,3.03
2017-10-28T10:23:20.662Z,2.70
2017-10-28T10:25:49.192Z,2.50
2017-10-28T10:28:16.889Z,3.40
2017-10-28T10:30:44.476Z,2.70
2017-10-28T10:33:12.835Z,3.13
2017-10-28T10:35:41.130Z,3.00
2017-10-28T10:38:09.389Z,2.93
2017-10-28T10:40:37.653Z,2.93
2017-10-28T10:43:05.178Z,2.80
2017-10-28T10:45:32.685Z,3.10
2017-10-28T10:48:00.970Z,2.70
2017-10-28T10:50:29.259Z,3.37
2017-10-28T10:52:57.554Z,2.50
2017-10-28T10:55:25.086Z,3.27
2017-10-28T10:57:52.577Z,2.73
2017-10-28T11:00:22.069Z,2.90
2017-10-28T11:02:49.566Z,2.73
2017-10-28T11:05:17.090Z,2.70
2017-10-28T11:07:44.586Z,3.17
2017-10-28T11:10:12.108Z,2.93
2017-10-28T11:12:39.630Z,2.73
2017-10-28T11:15:07.146Z,3.03
2017-10-28T11:17:35.590Z,3.00
2017-10-28T11:20:03.086Z,2.83
2017-10-28T11:22:30.621Z,2.53
2017-10-28T11:24:58.138Z,3.10
2017-10-28T11:27:26.590Z,2.80
2017-10-28T11:29:54.879Z,2.40
2017-10-28T11:32:24.101Z,2.90
2017-10-28T11:34:51.634Z,3.27
2017-10-28T11:37:19.904Z,2.20
2017-10-28T11:39:48.194Z,2.23
2017-10-28T11:42:15.716Z,2.77
2017-10-28T11:44:43.217Z,2.57
2017-10-28T11:47:10.710Z,2.47
2017-10-28T11:49:40.197Z,2.13
2017-10-28T11:52:07.697Z,2.20
2017-10-28T11:54:35.219Z,2.73
2017-10-28T11:57:02.722Z,2.37
2017-10-28T11:59:31.009Z,2.27
2017-10-28T12:01:59.270Z,2.70
2017-10-28T12:04:27.553Z,2.30
2017-10-28T12:06:55.819Z,2.20
2017-10-28T12:09:24.106Z,2.40
2017-10-28T12:11:52.370Z,1.87
2017-10-28T12:14:20.673Z,2.17
2017-10-28T12:16:50.145Z,2.20
2017-10-28T12:19:17.648Z,2.93
2017-10-28T12:21:45.170Z,2.60
2017-10-28T12:24:13.429Z,2.43
2017-10-28T12:26:40.941Z,2.00
2017-10-28T12:29:08.463Z,2.00
2017-10-28T12:31:36.732Z,2.10
2017-10-28T12:34:05.017Z,2.00
2017-10-28T12:36:33.278Z,2.20
2017-10-28T12:39:01.569Z,2.40
2017-10-28T12:41:29.105Z,2.27
2017-10-28T12:43:57.370Z,2.30
2017-10-28T12:46:25.654Z,1.90
2017-10-28T12:48:53.938Z,2.80
2017-10-28T12:51:22.199Z,2.30
2017-10-28T12:53:49.718Z,2.37
2017-10-28T12:56:18.164Z,2.27
2017-10-28T12:58:45.707Z,2.43
2017-10-28T13:01:13.978Z,2.20
2017-10-28T13:03:42.266Z,2.23
2017-10-28T13:06:10.529Z,2.10
2017-10-28T13:08:38.817Z,2.13
2017-10-28T13:11:07.106Z,2.77
2017-10-28T13:13:34.629Z,2.07
2017-10-28T13:16:02.890Z,1.77
2017-10-28T13:18:32.369Z,2.20
2017-10-28T13:20:59.865Z,1.87
2017-10-28T13:23:27.390Z,10.93
2017-10-28T13:25:54.898Z,12.70
2017-10-28T13:28:23.194Z,45.50
2017-10-28T13:30:50.698Z,48.80
2017-10-28T13:33:18.221Z,60.30
2017-10-28T13:35:45.737Z,61.57
2017-10-28T13:38:15.003Z,46.53
2017-10-28T13:40:42.509Z,50.17
2017-10-28T13:43:10.045Z,50.60
2017-10-28T13:45:39.261Z,50.37
2017-10-28T13:48:06.785Z,45.20
2017-10-28T13:50:34.337Z,42.43
2017-10-28T13:53:01.844Z,43.00
2017-10-28T13:55:31.342Z,40.80
2017-10-28T13:57:58.849Z,41.97
2017-10-28T14:00:26.383Z,38.23
2017-10-28T14:02:53.887Z,34.77
2017-10-28T14:05:22.502Z,35.70
2017-10-28T14:07:50.019Z,33.63
2017-10-28T14:10:18.326Z,29.40
2017-10-28T14:12:45.855Z,31.60
2017-10-28T14:15:15.059Z,31.07
2017-10-28T14:17:43.363Z,27.87
2017-10-28T14:20:12.264Z,26.40
2017-10-28T14:22:40.129Z,26.70
2017-10-28T14:25:09.021Z,25.23
2017-10-28T14:27:37.908Z,25.73
2017-10-28T14:30:05.451Z,24.90
2017-10-28T14:32:32.953Z,23.37
2017-10-28T14:35:00.478Z,22.43
2017-10-28T14:37:27.978Z,21.80
2017-10-28T14:39:55.502Z,20.87
2017-10-28T14:42:23.030Z,20.93
2017-10-28T14:44:50.533Z,21.33
2017-10-28T14:47:18.043Z,18.57
2017-10-28T14:49:45.570Z,21.13
2017-10-28T14:52:13.878Z,19.00
2017-10-28T14:54:41.413Z,17.87
2017-10-28T14:57:08.920Z,16.53
2017-10-28T14:59:36.426Z,15.93
2017-10-28T15:02:04.734Z,16.77
2017-10-28T15:04:32.271Z,15.27
2017-10-28T15:07:00.556Z,15.30
2017-10-28T15:09:28.095Z,15.47
2017-10-28T15:11:56.366Z,16.33
2017-10-28T15:14:26.626Z,12.57
2017-10-28T15:16:54.146Z,13.30
2017-10-28T15:19:22.466Z,15.70
2017-10-28T15:21:49.973Z,14.00
2017-10-28T15:24:17.526Z,13.33
2017-10-28T15:26:45.037Z,12.60
2017-10-28T15:29:12.550Z,12.90
2017-10-28T15:31:40.100Z,12.13
2017-10-28T15:34:07.645Z,11.37
2017-10-28T15:36:35.150Z,13.23
2017-10-28T15:39:02.675Z,10.60
2017-10-28T15:41:30.182Z,12.10
2017-10-28T15:43:57.718Z,10.47
2017-10-28T15:46:25.246Z,11.03
2017-10-28T15:48:52.747Z,9.60
2017-10-28T15:51:20.274Z,9.50
2017-10-28T15:53:48.542Z,11.53
2017-10-28T15:56:16.838Z,10.80
2017-10-28T15:58:44.351Z,10.33
2017-10-28T16:01:11.850Z,7.90
2017-10-28T16:03:40.136Z,8.57
2017-10-28T16:06:07.650Z,10.73
2017-10-28T16:08:35.174Z,8.83
2017-10-28T16:11:02.694Z,8.80
2017-10-28T16:13:30.987Z,8.63
2017-10-28T16:15:58.522Z,7.63
2017-10-28T16:18:26.789Z,8.03
2017-10-28T16:20:55.058Z,7.80
2017-10-28T16:23:23.362Z,7.70
2017-10-28T16:25:51.822Z,7.83
2017-10-28T16:28:20.119Z,7.60
2017-10-28T16:30:47.631Z,7.30
2017-10-28T16:33:15.159Z,7.10
2017-10-28T16:35:43.597Z,7.20
2017-10-28T16:38:11.882Z,7.30
2017-10-28T16:40:40.354Z,6.97
2017-10-28T16:43:08.997Z,6.90
2017-10-28T16:45:37.955Z,6.73
2017-10-28T16:48:05.820Z,6.20
2017-10-28T16:50:33.891Z,6.63
2017-10-28T16:53:01.662Z,7.50
2017-10-28T16:55:29.724Z,6.77
2017-10-28T16:57:57.721Z,5.83
2017-10-28T17:00:25.604Z,6.13
2017-10-28T17:02:54.248Z,5.70
2017-10-28T17:05:22.925Z,6.97
2017-10-28T17:07:50.687Z,5.80
2017-10-28T17:10:20.192Z,5.20
2017-10-28T17:12:48.159Z,5.83
2017-10-28T17:15:16.026Z,5.17
2017-10-28T17:17:43.956Z,6.23
2017-10-28T17:20:11.865Z,5.70
2017-10-28T17:22:39.929Z,5.67
2017-10-28T17:25:08.684Z,5.83
2017-10-28T17:27:36.888Z,5.60
2017-10-28T17:30:04.818Z,5.53
2017-10-28T17:32:32.928Z,4.63
2017-10-28T17:35:00.999Z,5.37
2017-10-28T17:37:28.968Z,6.10
2017-10-28T17:39:56.832Z,5.07
2017-10-28T17:42:24.614Z,4.70
2017-10-28T17:44:53.583Z,4.23
2017-10-28T17:47:22.533Z,4.67
2017-10-28T17:49:50.647Z,4.50
2017-10-28T17:52:18.615Z,4.97
2017-10-28T17:54:46.378Z,5.63
2017-10-28T17:57:15.082Z,5.73
2017-10-28T17:59:43.573Z,5.50
2017-10-28T18:02:12.122Z,5.30
2017-10-28T18:04:39.808Z,5.30
2017-10-28T18:07:07.546Z,4.53
2017-10-28T18:09:35.073Z,4.50
2017-10-28T18:12:03.342Z,4.80
2017-10-28T18:14:32.566Z,4.80
2017-10-28T18:17:00.082Z,5.00
2017-10-28T18:19:27.578Z,4.70
2017-10-28T18:21:57.195Z,5.40
2017-10-28T18:24:24.694Z,5.63
2017-10-28T18:26:52.220Z,5.20
2017-10-28T18:29:19.730Z,5.40
2017-10-28T18:31:48.006Z,4.73
2017-10-28T18:34:16.294Z,3.70
2017-10-28T18:36:43.790Z,4.80
2017-10-28T18:39:11.314Z,4.67
2017-10-28T18:41:38.806Z,4.77
2017-10-28T18:44:08.290Z,5.00
2017-10-28T18:46:35.791Z,4.67
2017-10-28T18:49:03.322Z,4.90
2017-10-28T18:51:30.851Z,6.20
2017-10-28T18:53:59.305Z,5.50
2017-10-28T18:56:27.598Z,5.67
2017-10-28T18:58:55.092Z,4.20
2017-10-28T19:01:22.610Z,5.00
2017-10-28T19:03:50.110Z,4.97
2017-10-28T19:06:17.606Z,4.80
2017-10-28T19:08:45.899Z,4.90
2017-10-28T19:11:13.400Z,5.03
2017-10-28T19:13:42.878Z,5.30
2017-10-28T19:16:10.374Z,4.90
2017-10-28T19:18:37.898Z,5.20
2017-10-28T19:21:05.403Z,4.50
2017-10-28T19:23:32.942Z,5.10
2017-10-28T19:26:01.394Z,4.77
2017-10-28T19:28:28.918Z,4.67
2017-10-28T19:30:57.190Z,4.77
2017-10-28T19:33:25.481Z,4.83
2017-10-28T19:35:52.982Z,4.10
2017-10-28T19:38:20.510Z,5.00
2017-10-28T19:40:48.023Z,5.10
2017-10-28T19:43:16.316Z,4.33
2017-10-28T19:45:43.829Z,4.97
2017-10-28T19:48:11.355Z,4.50
2017-10-28T19:50:38.863Z,4.83
2017-10-28T19:53:06.401Z,4.80
2017-10-28T19:55:33.934Z,5.10
2017-10-28T19:58:01.450Z,23.40
2017-10-28T20:00:30.674Z,6.80
2017-10-28T20:02:58.203Z,7.80
2017-10-28T20:05:26.478Z,6.10
2017-10-28T20:07:54.774Z,15.60
2017-10-28T20:10:22.265Z,7.83
2017-10-28T20:12:49.788Z,6.93
2017-10-28T20:15:17.286Z,7.83
2017-10-28T20:17:44.813Z,6.90
2017-10-28T20:20:12.317Z,8.27
2017-10-28T20:22:39.832Z,7.57
2017-10-28T20:25:07.333Z,7.30
2017-10-28T20:27:36.814Z,7.23
2017-10-28T20:30:04.318Z,7.37
2017-10-28T20:32:31.826Z,8.20
2017-10-28T20:34:59.388Z,7.47
2017-10-28T20:37:26.881Z,6.67
2017-10-28T20:39:55.170Z,7.23
2017-10-28T20:42:22.690Z,8.33
2017-10-28T20:44:50.186Z,7.03
2017-10-28T20:47:17.707Z,7.30
2017-10-28T20:49:45.211Z,6.70
2017-10-28T20:52:12.743Z,7.00
2017-10-28T20:54:41.962Z,7.00
2017-10-28T20:57:09.461Z,6.57
2017-10-28T20:59:36.987Z,7.37
2017-10-28T21:02:04.486Z,6.77
2017-10-28T21:04:32.014Z,6.67
2017-10-28T21:06:59.506Z,6.53
2017-10-28T21:09:27.002Z,6.63
2017-10-28T21:11:54.523Z,6.30
2017-10-28T21:14:22.022Z,6.33
2017-10-28T21:16:51.497Z,6.37
2017-10-28T21:19:19.023Z,6.17
2017-10-28T21:21:46.544Z,6.70
2017-10-28T21:24:14.036Z,6.10
2017-10-28T21:26:41.561Z,5.93
2017-10-28T21:29:09.107Z,6.17
2017-10-28T21:31:36.626Z,6.17
2017-10-28T21:34:04.131Z,5.87
2017-10-28T21:36:31.649Z,6.20
2017-10-28T21:38:59.906Z,6.17
2017-10-28T21:41:27.430Z,6.30
2017-10-28T21:43:54.925Z,5.30
2017-10-28T21:46:22.463Z,6.60
2017-10-28T21:48:49.963Z,5.93
2017-10-28T21:51:18.249Z,6.40
2017-10-28T21:53:45.741Z,5.50
2017-10-28T21:56:13.283Z,5.97
2017-10-28T21:58:40.806Z,5.30
2017-10-28T22:01:09.062Z,5.03
2017-10-28T22:03:37.511Z,5.60
2017-10-28T22:06:05.046Z,5.90
2017-10-28T22:08:32.551Z,6.33
2017-10-28T22:11:00.078Z,5.73
2017-10-28T22:13:27.601Z,5.40
2017-10-28T22:15:55.880Z,5.27
2017-10-28T22:18:23.398Z,5.50
2017-10-28T22:20:50.899Z,4.90
2017-10-28T22:23:18.393Z,5.77
2017-10-28T22:25:47.859Z,5.40
2017-10-28T22:28:15.367Z,5.20
2017-10-28T22:30:42.907Z,5.50
2017-10-28T22:33:10.888Z,4.77
2017-10-28T22:35:38.719Z,4.87
2017-10-28T22:38:07.711Z,5.23
2017-10-28T22:40:35.679Z,4.20
2017-10-28T22:43:03.729Z,5.40
2017-10-28T22:45:31.718Z,5.00
2017-10-28T22:48:00.300Z,4.77
2017-10-28T22:50:28.370Z,4.77
2017-10-28T22:52:57.260Z,4.93
2017-10-28T22:55:25.026Z,5.17
2017-10-28T22:57:52.803Z,5.47
2017-10-28T23:00:20.338Z,4.87
2017-10-28T23:02:47.854Z,4.60
2017-10-28T23:05:16.257Z,4.77
2017-10-28T23:07:43.782Z,4.80
2017-10-28T23:10:11.287Z,4.60
2017-10-28T23:12:38.815Z,4.83
2017-10-28T23:15:07.089Z,4.40
2017-10-28T23:17:35.381Z,4.17
2017-10-28T23:20:02.873Z,4.63
2017-10-28T23:22:32.372Z,4.73
2017-10-28T23:24:59.865Z,4.67
2017-10-28T23:27:27.387Z,4.80
2017-10-28T23:29:54.897Z,5.17
2017-10-28T23:32:23.157Z,4.47
2017-10-28T23:34:51.446Z,5.27
2017-10-28T23:37:20.671Z,3.57
2017-10-28T23:39:48.202Z,4.13
2017-10-28T23:42:16.470Z,3.90
2017-10-28T23:44:44.730Z,4.00
2017-10-28T23:47:12.249Z,4.20
2017-10-28T23:49:39.746Z,4.10
2017-10-28T23:52:07.274Z,4.37
2017-10-28T23:54:35.731Z,4.63
2017-10-28T23:57:03.263Z,3.87
2017-10-28T23:59:31.525Z,3.57
